createdAt,value
2018-02-15T00:00:26.232Z,22.27
2018-02-15T00:02:53.849Z,20.48
2018-02-15T00:05:21.412Z,24.37
2018-02-15T00:07:49.049Z,17.40
2018-02-15T00:10:16.950Z,18.90
2018-02-15T00:12:44.690Z,17.02
2018-02-15T00:15:12.205Z,22.10
2018-02-15T00:17:39.753Z,21.95
2018-02-15T00:20:07.266Z,19.77
2018-02-15T00:22:35.369Z,21.95
2018-02-15T00:25:02.937Z,22.87
2018-02-15T00:27:30.478Z,20.70
2018-02-15T00:29:58.953Z,26.80
2018-02-15T00:32:26.482Z,27.45
2018-02-15T00:34:54.193Z,26.02
2018-02-15T00:37:21.706Z,29.40
2018-02-15T00:39:50.764Z,22.77
2018-02-15T00:42:18.427Z,25.50
2018-02-15T00:44:45.946Z,28.10
2018-02-15T00:47:13.766Z,28.70
2018-02-15T00:49:41.350Z,26.08
2018-02-15T00:52:08.878Z,23.67
2018-02-15T00:54:36.425Z,29.02
2018-02-15T00:57:03.934Z,31.40
2018-02-15T00:59:31.842Z,23.35
2018-02-15T01:01:59.362Z,27.58
2018-02-15T01:04:26.885Z,34.13
2018-02-15T01:06:54.437Z,30.95
2018-02-15T01:09:21.990Z,95.47
2018-02-15T01:11:49.547Z,64.90
2018-02-15T01:14:17.292Z,60.75
2018-02-15T01:16:45.093Z,73.07
2018-02-15T01:19:12.793Z,63.08
2018-02-15T01:21:40.678Z,58.47
2018-02-15T01:24:08.265Z,29.77
2018-02-15T01:26:36.146Z,30.00
2018-02-15T01:29:03.817Z,24.70
2018-02-15T01:31:31.569Z,27.80
2018-02-15T01:33:59.346Z,21.37
2018-02-15T01:36:27.273Z,32.10
2018-02-15T01:38:55.077Z,32.78
2018-02-15T01:41:22.934Z,31.02
2018-02-15T01:43:50.826Z,32.13
2018-02-15T01:46:18.573Z,21.62
2018-02-15T01:48:46.436Z,29.05
2018-02-15T01:51:13.950Z,21.08
2018-02-15T01:53:41.473Z,27.75
2018-02-15T01:56:09.019Z,22.67
2018-02-15T01:58:36.610Z,26.98
2018-02-15T02:01:04.397Z,25.45
2018-02-15T02:03:31.922Z,22.02
2018-02-15T02:05:59.450Z,25.23
2018-02-15T02:08:26.994Z,26.87
2018-02-15T02:10:54.514Z,29.12
2018-02-15T02:13:22.243Z,34.00
2018-02-15T02:15:49.794Z,23.25
2018-02-15T02:18:17.325Z,21.45
2018-02-15T02:20:44.884Z,18.80
2018-02-15T02:23:12.402Z,17.85
2018-02-15T02:25:40.199Z,23.17
2018-02-15T02:28:07.775Z,22.00
2018-02-15T02:30:35.300Z,19.98
2018-02-15T02:33:02.854Z,20.55
2018-02-15T02:35:30.387Z,10.05
2018-02-15T02:37:58.294Z,17.20
2018-02-15T02:40:25.810Z,19.12
2018-02-15T02:42:53.337Z,21.50
2018-02-15T02:45:20.931Z,19.45
2018-02-15T02:47:48.455Z,16.73
2018-02-15T02:50:16.226Z,20.15
2018-02-15T02:52:43.745Z,20.62
2018-02-15T02:55:11.271Z,16.20
2018-02-15T02:57:38.814Z,17.70
2018-02-15T03:00:06.334Z,15.30
2018-02-15T03:02:33.977Z,18.77
2018-02-15T03:05:01.493Z,16.10
2018-02-15T03:07:29.026Z,16.40
2018-02-15T03:10:02.017Z,15.93
2018-02-15T03:12:29.538Z,14.25
2018-02-15T03:14:57.155Z,11.10
2018-02-15T03:17:24.674Z,16.08
2018-02-15T03:19:52.189Z,13.85
2018-02-15T03:22:19.730Z,9.73
2018-02-15T03:24:47.248Z,15.95
2018-02-15T03:27:14.793Z,16.17
2018-02-15T03:29:42.305Z,13.82
2018-02-15T03:32:09.823Z,18.08
2018-02-15T03:34:37.403Z,13.18
2018-02-15T03:37:04.933Z,12.70
2018-02-15T03:39:32.681Z,4.78
2018-02-15T03:42:00.202Z,14.32
2018-02-15T03:44:27.713Z,13.90
2018-02-15T03:46:55.256Z,14.90
2018-02-15T03:49:22.771Z,19.15
2018-02-15T03:51:50.311Z,22.00
2018-02-15T03:54:17.844Z,14.32
2018-02-15T03:56:45.368Z,17.40
2018-02-15T03:59:12.909Z,12.70
2018-02-15T04:01:40.434Z,23.10
2018-02-15T04:04:08.056Z,10.20
2018-02-15T04:06:35.569Z,15.82
2018-02-15T04:09:03.102Z,15.32
2018-02-15T04:11:30.640Z,13.15
2018-02-15T04:13:58.157Z,15.30
2018-02-15T04:16:26.438Z,16.73
2018-02-15T04:18:54.027Z,13.68
2018-02-15T04:21:21.615Z,13.45
2018-02-15T04:23:49.081Z,16.67
2018-02-15T05:00:26.141Z,17.40
2018-02-15T05:02:53.655Z,19.20
2018-02-15T05:05:21.227Z,21.77
2018-02-15T05:07:48.770Z,18.80
2018-02-15T05:10:16.295Z,23.52
2018-02-15T05:12:43.822Z,19.23
2018-02-15T05:15:11.549Z,22.70
2018-02-15T05:17:39.067Z,19.62
2018-02-15T05:20:06.592Z,18.98
2018-02-15T05:22:34.149Z,16.87
2018-02-15T05:25:01.697Z,21.02
2018-02-15T05:27:30.401Z,15.52
2018-02-15T05:29:58.267Z,23.33
2018-02-15T05:32:26.455Z,17.77
2018-02-15T05:34:54.334Z,15.70
2018-02-15T06:51:51.157Z,15.07
2018-02-15T06:54:18.704Z,23.12
2018-02-15T06:56:46.254Z,14.43
2018-02-15T06:59:13.765Z,24.02
2018-02-15T07:01:41.277Z,22.80
2018-02-15T07:04:08.892Z,19.70
2018-02-15T07:06:36.417Z,15.88
2018-02-15T07:09:04.329Z,14.32
2018-02-15T07:11:31.894Z,15.77
2018-02-15T07:13:59.414Z,16.05
2018-02-15T07:16:26.976Z,10.50
2018-02-15T07:18:54.494Z,17.75
2018-02-15T07:21:22.042Z,13.30
2018-02-15T07:23:49.567Z,14.38
2018-02-15T07:26:17.087Z,16.95
2018-02-15T07:28:44.622Z,9.80
2018-02-15T07:31:12.142Z,15.60
2018-02-15T07:33:39.694Z,16.12
2018-02-15T07:36:07.801Z,13.80
2018-02-15T07:38:35.547Z,14.07
2018-02-15T07:41:03.086Z,8.55
2018-02-15T07:43:31.929Z,13.27
2018-02-15T07:45:59.774Z,9.98
2018-02-15T07:48:27.307Z,10.68
2018-02-15T07:50:55.761Z,7.68
2018-02-15T07:53:23.488Z,30.00
2018-02-15T07:55:51.533Z,13.25
2018-02-15T07:58:20.014Z,8.90
2018-02-15T08:00:49.764Z,9.35
2018-02-15T08:03:18.193Z,11.30
2018-02-15T08:05:46.633Z,13.65
2018-02-15T08:08:14.178Z,20.65
2018-02-15T08:10:41.731Z,8.23
2018-02-15T08:13:10.389Z,14.60
2018-02-15T08:15:37.926Z,21.20
2018-02-15T08:18:05.475Z,20.45
2018-02-15T08:20:33.031Z,19.98
2018-02-15T08:23:00.737Z,19.73
2018-02-15T08:25:28.318Z,15.07
2018-02-15T08:27:55.980Z,16.77
2018-02-15T08:30:23.917Z,18.55
2018-02-15T08:32:51.684Z,17.65
2018-02-15T08:35:19.210Z,17.15
2018-02-15T08:37:47.845Z,16.73
2018-02-15T08:40:15.366Z,21.55
2018-02-15T08:42:42.904Z,19.85
2018-02-15T08:45:10.450Z,17.33
2018-02-15T08:47:38.097Z,15.02
2018-02-15T08:50:06.768Z,15.95
2018-02-15T08:52:34.411Z,26.20
2018-02-15T08:55:02.784Z,17.02
2018-02-15T08:57:30.333Z,16.85
2018-02-15T08:59:57.914Z,21.98
2018-02-15T09:02:25.469Z,20.95
2018-02-15T09:04:52.988Z,18.48
2018-02-15T09:07:20.504Z,24.33
2018-02-15T09:09:48.059Z,19.48
2018-02-15T09:12:15.613Z,18.25
2018-02-15T09:14:43.162Z,17.67
2018-02-15T09:17:11.667Z,10.63
2018-02-15T09:19:39.220Z,21.50
2018-02-15T09:22:06.772Z,23.62
2018-02-15T09:24:34.295Z,18.58
2018-02-15T09:27:01.879Z,21.85
2018-02-15T09:29:29.389Z,23.65
2018-02-15T09:31:57.014Z,17.23
2018-02-15T09:34:24.579Z,22.62
2018-02-15T09:36:52.099Z,14.63
2018-02-15T09:39:19.794Z,22.65
2018-02-15T09:41:47.456Z,23.10
2018-02-15T09:44:15.007Z,23.30
2018-02-15T09:46:42.658Z,14.25
2018-02-15T09:49:10.185Z,17.83
2018-02-15T09:51:37.795Z,15.40
2018-02-15T09:54:05.560Z,14.93
2018-02-15T09:56:33.196Z,15.80
2018-02-15T09:59:00.884Z,17.27
2018-02-15T10:01:28.835Z,12.43
2018-02-15T10:03:57.965Z,12.43
2018-02-15T10:06:26.018Z,13.38
2018-02-15T10:08:53.551Z,11.43
2018-02-15T10:11:21.356Z,17.83
2018-02-15T10:13:49.573Z,20.02
2018-02-15T10:16:17.584Z,16.42
2018-02-15T10:18:45.329Z,9.90
2018-02-15T10:21:13.534Z,21.85
2018-02-15T10:23:41.182Z,15.43
2018-02-15T10:26:08.957Z,15.30
2018-02-15T10:28:36.985Z,22.98
2018-02-15T10:31:04.914Z,15.15
2018-02-15T10:33:33.440Z,22.52
2018-02-15T10:36:01.351Z,11.65
2018-02-15T10:38:29.020Z,17.05
2018-02-15T10:40:57.087Z,16.65
2018-02-15T10:43:25.164Z,17.58
2018-02-15T10:45:53.032Z,17.00
2018-02-15T10:48:21.304Z,14.45
2018-02-15T10:50:49.417Z,17.00
2018-02-15T10:53:17.390Z,10.48
2018-02-15T10:55:45.093Z,21.23
2018-02-15T10:58:12.955Z,16.40
2018-02-15T11:00:46.194Z,21.23
2018-02-15T11:03:19.647Z,17.23
2018-02-15T11:05:47.298Z,18.65
2018-02-15T11:08:15.173Z,22.40
2018-02-15T11:10:43.345Z,26.27
2018-02-15T11:13:11.090Z,21.80
2018-02-15T11:15:38.874Z,26.60
2018-02-15T11:18:06.740Z,18.42
2018-02-15T11:20:34.403Z,23.70
2018-02-15T11:23:02.153Z,18.95
2018-02-15T11:25:30.089Z,31.67
2018-02-15T11:27:57.899Z,37.75
2018-02-15T11:30:25.778Z,28.85
2018-02-15T11:32:53.390Z,31.05
2018-02-15T11:35:21.436Z,30.83
2018-02-15T11:37:49.312Z,29.58
2018-02-15T11:40:17.228Z,34.85
2018-02-15T11:42:45.632Z,25.42
2018-02-15T11:45:13.802Z,35.00
2018-02-15T11:47:42.029Z,35.13
2018-02-15T11:50:10.051Z,39.17
2018-02-15T11:52:37.897Z,40.58
2018-02-15T11:55:05.864Z,36.03
2018-02-15T11:57:33.833Z,38.88
2018-02-15T12:00:01.495Z,43.10
2018-02-15T12:02:30.081Z,35.65
2018-02-15T12:04:57.857Z,46.15
2018-02-15T12:07:25.710Z,42.55
2018-02-15T12:09:53.286Z,39.42
2018-02-15T12:12:21.055Z,34.47
2018-02-15T12:14:48.801Z,42.38
2018-02-15T12:17:16.828Z,41.90
2018-02-15T12:19:44.853Z,27.70
2018-02-15T12:22:13.123Z,45.47
2018-02-15T12:24:41.821Z,38.42
2018-02-15T12:27:09.655Z,43.75
2018-02-15T12:29:37.866Z,48.15
2018-02-15T12:32:05.503Z,43.45
2018-02-15T12:34:33.060Z,42.90
2018-02-15T12:37:00.925Z,43.95
2018-02-15T12:39:28.665Z,50.03
2018-02-15T12:41:57.510Z,52.28
2018-02-15T12:44:25.241Z,43.45
2018-02-15T12:46:52.904Z,41.17
2018-02-15T12:49:21.068Z,45.67
2018-02-15T12:51:49.455Z,40.33
2018-02-15T12:54:17.019Z,41.55
2018-02-15T12:56:45.426Z,38.05
2018-02-15T12:59:12.954Z,36.50
2018-02-15T13:01:40.716Z,40.12
2018-02-15T13:04:08.459Z,39.45
2018-02-15T13:06:36.143Z,38.72
2018-02-15T13:09:03.928Z,52.30
2018-02-15T13:11:32.182Z,45.15
2018-02-15T13:14:00.252Z,45.30
2018-02-15T13:16:39.614Z,36.83
2018-02-15T13:22:26.420Z,41.83
2018-02-15T13:24:54.593Z,24.60
2018-02-15T13:27:34.751Z,32.33
2018-02-15T13:30:03.026Z,40.60
2018-02-15T13:32:30.891Z,41.15
2018-02-15T13:34:58.723Z,34.67
2018-02-15T13:37:26.614Z,38.53
2018-02-15T13:39:54.977Z,41.03
2018-02-15T13:42:22.844Z,36.88
2018-02-15T13:44:50.634Z,35.70
2018-02-15T13:47:18.296Z,36.00
2018-02-15T13:49:45.872Z,32.15
2018-02-15T13:52:13.417Z,29.58
2018-02-15T13:54:41.419Z,30.67
2018-02-15T13:57:09.785Z,43.97
2018-02-15T13:59:37.331Z,35.28
2018-02-15T14:02:04.888Z,34.65
2018-02-15T14:04:32.410Z,38.85
2018-02-15T14:07:00.307Z,36.78
2018-02-15T14:09:27.884Z,40.65
2018-02-15T14:11:55.506Z,36.08
2018-02-15T14:14:23.187Z,34.50
2018-02-15T14:16:51.054Z,40.95
2018-02-15T14:19:18.897Z,41.37
2018-02-15T14:21:46.430Z,34.17
2018-02-15T14:24:14.134Z,25.95
2018-02-15T14:26:42.049Z,38.47
2018-02-15T14:29:09.768Z,33.85
2018-02-15T14:31:37.739Z,37.15
2018-02-15T14:34:05.392Z,29.42
2018-02-15T14:36:33.038Z,30.55
2018-02-15T14:39:00.797Z,32.88
2018-02-15T14:41:28.386Z,29.58
2018-02-15T14:43:56.451Z,32.10
2018-02-15T14:46:24.221Z,34.47
2018-02-15T14:48:52.202Z,26.35
2018-02-15T14:51:19.955Z,38.05
2018-02-15T14:53:47.734Z,31.80
2018-02-15T14:56:15.795Z,29.80
2018-02-15T14:58:43.458Z,35.25
2018-02-15T15:01:11.204Z,36.53
2018-02-15T15:03:38.930Z,23.95
2018-02-15T15:06:06.644Z,31.30
2018-02-15T15:08:35.021Z,35.10
2018-02-15T15:11:02.886Z,36.80
2018-02-15T15:13:30.753Z,33.83
2018-02-15T15:15:58.723Z,28.83
2018-02-15T15:18:27.100Z,29.27
2018-02-15T15:20:55.479Z,37.22
2018-02-15T15:23:23.326Z,34.22
2018-02-15T15:25:51.213Z,33.25
2018-02-15T15:28:19.103Z,32.67
2018-02-15T15:30:47.151Z,40.47
2018-02-15T15:33:15.323Z,38.97
2018-02-15T15:35:43.684Z,37.67
2018-02-15T15:38:12.775Z,37.40
2018-02-15T15:40:41.697Z,30.80
2018-02-15T15:43:09.508Z,34.92
2018-02-15T15:45:38.035Z,38.15
2018-02-15T15:48:06.010Z,35.03
2018-02-15T15:50:33.870Z,36.78
2018-02-15T15:53:02.351Z,39.55
2018-02-15T15:55:30.422Z,35.25
2018-02-15T15:57:58.391Z,37.40
2018-02-15T16:00:26.399Z,34.47
2018-02-15T16:02:54.534Z,32.97
2018-02-15T16:05:22.503Z,37.55
2018-02-15T16:07:52.218Z,36.08
2018-02-15T16:10:20.246Z,34.10
2018-02-15T16:12:48.185Z,38.05
2018-02-15T16:15:16.138Z,31.75
2018-02-15T16:17:44.089Z,40.95
2018-02-15T16:20:12.465Z,35.72
2018-02-15T16:22:41.413Z,30.65
2018-02-15T16:25:09.843Z,33.05
2018-02-15T16:27:37.806Z,27.48
2018-02-15T16:30:05.777Z,27.48
2018-02-15T16:32:34.800Z,31.08
2018-02-15T16:35:03.370Z,27.83
2018-02-15T16:37:31.301Z,32.65
2018-02-15T16:39:59.186Z,34.17
2018-02-15T16:42:27.155Z,27.37
2018-02-15T16:44:55.230Z,39.38
2018-02-15T16:47:23.640Z,37.53
2018-02-15T16:49:52.681Z,70.93
2018-02-15T16:52:20.772Z,29.80
2018-02-15T16:54:49.858Z,26.75
2018-02-15T16:57:18.245Z,36.85
2018-02-15T16:59:46.828Z,30.90
2018-02-15T17:02:17.037Z,27.48
2018-02-15T17:04:45.430Z,31.10
2018-02-15T17:07:13.369Z,28.25
2018-02-15T17:09:41.782Z,26.05
2018-02-15T17:12:10.256Z,30.10
2018-02-15T17:14:39.967Z,38.97
2018-02-15T17:17:07.914Z,37.22
2018-02-15T17:19:36.522Z,30.20
2018-02-15T17:22:04.493Z,29.17
2018-02-15T17:24:32.354Z,31.70
2018-02-15T17:27:01.229Z,28.10
2018-02-15T17:29:29.397Z,27.45
2018-02-15T17:31:58.104Z,31.12
2018-02-15T17:34:26.030Z,26.30
2018-02-15T17:36:53.938Z,24.25
2018-02-15T17:39:22.513Z,34.72
2018-02-15T17:41:50.390Z,20.50
2018-02-15T17:44:19.345Z,20.40
2018-02-15T17:46:47.884Z,30.42
2018-02-15T17:49:15.858Z,27.87
2018-02-15T17:51:43.800Z,25.52
2018-02-15T17:54:11.770Z,29.77
2018-02-15T17:56:40.252Z,30.25
2018-02-15T17:59:08.123Z,30.02
2018-02-15T18:01:36.087Z,31.00
2018-02-15T18:04:04.055Z,25.90
2018-02-15T18:06:32.128Z,24.17
2018-02-15T18:09:00.504Z,23.33
2018-02-15T18:11:28.853Z,31.40
2018-02-15T18:13:56.747Z,25.65
2018-02-15T18:16:24.760Z,31.62
2018-02-15T18:18:52.789Z,25.65
2018-02-15T18:21:20.920Z,25.85
2018-02-15T18:23:49.366Z,51.92
2018-02-15T18:26:18.231Z,34.15
2018-02-15T18:28:47.475Z,28.92
2018-02-15T18:31:16.217Z,33.42
2018-02-15T18:33:45.320Z,29.52
2018-02-15T18:36:13.179Z,25.83
2018-02-15T18:38:40.963Z,29.63
2018-02-15T18:41:08.832Z,32.10
2018-02-15T18:43:37.635Z,33.33
2018-02-15T18:46:05.990Z,28.83
2018-02-15T18:48:35.496Z,27.75
2018-02-15T18:51:03.451Z,22.05
2018-02-15T18:53:31.626Z,26.50
2018-02-15T18:55:59.882Z,25.00
2018-02-15T18:58:28.158Z,29.08
2018-02-15T19:00:56.451Z,27.20
2018-02-15T19:03:24.355Z,26.15
2018-02-15T19:05:52.390Z,30.65
2018-02-15T19:08:20.257Z,27.52
2018-02-15T19:10:48.687Z,23.95
2018-02-15T19:13:17.017Z,27.58
2018-02-15T19:15:45.909Z,22.77
2018-02-15T19:18:13.874Z,30.95
2018-02-15T19:20:43.069Z,30.95
2018-02-15T19:23:12.069Z,28.80
2018-02-15T19:25:40.032Z,18.73
2018-02-15T19:28:08.002Z,23.15
2018-02-15T19:30:35.969Z,30.23
2018-02-15T19:33:04.454Z,26.60
2018-02-15T19:35:32.732Z,25.65
2018-02-15T19:38:00.594Z,25.02
2018-02-15T19:40:29.616Z,29.10
2018-02-15T19:42:57.761Z,28.73
2018-02-15T19:45:26.243Z,25.75
2018-02-15T19:47:54.213Z,23.00
2018-02-15T19:50:22.489Z,27.30
2018-02-15T19:52:50.438Z,29.15
2018-02-15T19:55:18.427Z,25.00
2018-02-15T19:57:46.942Z,26.33
2018-02-15T20:00:15.185Z,24.75
2018-02-15T20:02:44.071Z,22.42
2018-02-15T20:05:12.554Z,20.52
2018-02-15T20:07:44.720Z,23.15
2018-02-15T20:10:12.692Z,28.73
2018-02-15T20:12:41.067Z,26.90
2018-02-15T20:15:08.912Z,25.27
2018-02-15T20:17:36.901Z,21.27
2018-02-15T20:20:10.710Z,19.77
2018-02-15T20:22:38.757Z,26.75
2018-02-15T20:25:07.028Z,26.30
